createdAt,value
2022-11-19T00:02:24.025Z,14.95
2022-11-19T00:04:52.780Z,18.42
2022-11-19T00:07:20.546Z,16.52
2022-11-19T00:09:48.508Z,14.88
2022-11-19T00:12:35.168Z,18.70
2022-11-19T00:15:03.417Z,19.17
2022-11-19T00:17:31.494Z,13.70
2022-11-19T00:19:59.275Z,16.90
2022-11-19T00:22:27.587Z,14.65
2022-11-19T00:24:56.256Z,17.33
2022-11-19T00:27:24.228Z,18.08
2022-11-19T00:29:52.092Z,18.02
2022-11-19T00:32:20.121Z,16.90
2022-11-19T00:34:48.005Z,16.63
2022-11-19T00:37:16.327Z,15.95
2022-11-19T00:39:44.248Z,14.77
2022-11-19T00:42:12.096Z,13.85
2022-11-19T00:44:40.348Z,18.58
2022-11-19T00:47:08.162Z,17.00
2022-11-19T00:49:36.007Z,19.33
2022-11-19T00:52:04.739Z,20.02
2022-11-19T00:54:33.639Z,19.33
2022-11-19T00:57:01.447Z,14.25
2022-11-19T00:59:29.701Z,18.98
2022-11-19T01:01:58.072Z,19.90
2022-11-19T01:04:25.936Z,20.30
2022-11-19T01:06:54.307Z,19.88
2022-11-19T01:09:22.405Z,23.65
2022-11-19T01:11:50.383Z,21.23
2022-11-19T01:14:18.340Z,20.65
2022-11-19T01:16:46.172Z,17.90
2022-11-19T01:19:16.967Z,20.35
2022-11-19T01:21:45.903Z,20.65
2022-11-19T01:24:13.906Z,17.02
2022-11-19T01:26:45.710Z,19.02
2022-11-19T01:29:14.599Z,16.05
2022-11-19T01:31:42.450Z,24.73
2022-11-19T01:34:10.439Z,19.67
2022-11-19T01:36:38.469Z,21.42
2022-11-19T01:39:06.367Z,17.52
2022-11-19T01:41:34.642Z,19.33
2022-11-19T01:44:08.350Z,18.02
2022-11-19T01:46:38.725Z,19.50
2022-11-19T01:49:20.725Z,20.58
2022-11-19T01:52:00.824Z,20.13
2022-11-19T01:54:44.752Z,19.25
2022-11-19T01:57:16.704Z,20.85
2022-11-19T01:59:46.847Z,16.90
2022-11-19T02:02:15.585Z,20.92
2022-11-19T02:04:44.043Z,23.42
2022-11-19T02:07:13.702Z,21.90
2022-11-19T02:09:42.604Z,21.02
2022-11-19T02:12:52.685Z,17.67
2022-11-19T02:15:36.993Z,17.90
2022-11-19T02:18:30.516Z,21.70
2022-11-19T02:21:16.074Z,22.38
2022-11-19T02:24:26.379Z,23.92
2022-11-19T02:27:24.281Z,18.83
2022-11-19T02:30:18.793Z,19.35
2022-11-19T02:33:22.777Z,21.40
2022-11-19T02:36:41.207Z,20.92
2022-11-19T02:39:51.361Z,23.38
2022-11-19T02:42:44.632Z,21.88
2022-11-19T02:45:31.001Z,20.95
2022-11-19T02:48:25.354Z,20.73
2022-11-19T02:50:58.232Z,19.55
2022-11-19T02:53:26.519Z,19.45
2022-11-19T02:56:12.509Z,17.80
2022-11-19T02:59:11.388Z,19.67
2022-11-19T03:02:19.301Z,20.08
2022-11-19T03:04:47.572Z,19.95
2022-11-19T03:07:19.781Z,20.73
2022-11-19T03:10:01.234Z,17.42
2022-11-19T03:12:53.551Z,21.63
2022-11-19T03:15:53.430Z,21.05
2022-11-19T03:19:06.225Z,22.67
2022-11-19T03:22:00.737Z,18.70
2022-11-19T03:24:54.690Z,16.55
2022-11-19T03:27:44.165Z,27.17
2022-11-19T03:30:14.842Z,21.60
2022-11-19T03:33:10.990Z,21.35
2022-11-19T03:35:52.156Z,20.90
2022-11-19T03:38:30.532Z,23.95
2022-11-19T03:41:01.514Z,22.63
2022-11-19T03:43:36.632Z,23.90
2022-11-19T03:46:10.238Z,19.95
2022-11-19T03:48:40.429Z,21.77
2022-11-19T03:51:19.079Z,23.42
2022-11-19T03:53:47.910Z,19.00
2022-11-19T03:56:22.178Z,19.58
2022-11-19T03:58:50.363Z,20.92
2022-11-19T04:01:18.309Z,21.17
2022-11-19T04:04:06.230Z,22.75
2022-11-19T04:06:34.360Z,21.45
2022-11-19T04:09:02.275Z,18.40
2022-11-19T04:11:31.662Z,20.48
2022-11-19T04:13:59.689Z,21.58
2022-11-19T04:16:27.673Z,19.73
2022-11-19T04:18:56.034Z,24.95
2022-11-19T04:21:24.123Z,21.75
2022-11-19T04:23:51.976Z,19.25
2022-11-19T04:26:19.982Z,21.38
2022-11-19T04:28:47.945Z,26.58
2022-11-19T04:31:17.975Z,25.38
2022-11-19T04:33:46.436Z,24.02
2022-11-19T04:36:14.561Z,20.75
2022-11-19T04:38:42.554Z,24.73
2022-11-19T04:41:11.166Z,19.98
2022-11-19T04:43:39.196Z,22.38
2022-11-19T04:46:07.082Z,24.77
2022-11-19T04:48:35.278Z,24.80
2022-11-19T04:51:04.737Z,24.38
2022-11-19T04:53:32.611Z,24.77
2022-11-19T04:56:03.701Z,28.33
2022-11-19T04:58:31.638Z,22.23
2022-11-19T05:00:59.441Z,17.42
2022-11-19T05:03:27.415Z,27.55
2022-11-19T05:05:55.883Z,23.15
2022-11-19T05:08:24.203Z,21.52
2022-11-19T05:10:52.299Z,20.60
2022-11-19T05:13:20.474Z,26.65
2022-11-19T05:15:48.335Z,21.02
2022-11-19T05:18:16.417Z,22.90
2022-11-19T05:20:44.354Z,22.90
2022-11-19T05:23:12.821Z,20.83
2022-11-19T05:25:40.703Z,24.38
2022-11-19T05:28:08.669Z,23.05
2022-11-19T05:30:36.486Z,19.35
2022-11-19T05:33:04.471Z,25.58
2022-11-19T05:35:32.955Z,26.45
2022-11-19T05:38:00.974Z,15.02
2022-11-19T05:40:29.162Z,22.33
2022-11-19T05:43:07.296Z,17.08
2022-11-19T05:45:35.507Z,17.40
2022-11-19T05:48:03.817Z,22.92
2022-11-19T05:50:31.732Z,18.60
2022-11-19T05:53:05.417Z,22.80
2022-11-19T05:55:33.519Z,18.33
2022-11-19T05:58:01.466Z,20.58
2022-11-19T06:00:29.531Z,19.55
2022-11-19T06:02:57.788Z,22.65
2022-11-19T06:05:25.811Z,20.92
2022-11-19T06:07:53.645Z,20.42
2022-11-19T06:10:21.896Z,21.98
2022-11-19T06:12:50.109Z,18.05
2022-11-19T06:15:18.439Z,18.52
2022-11-19T06:17:46.442Z,20.88
2022-11-19T06:20:14.412Z,22.38
2022-11-19T06:22:42.388Z,23.60
2022-11-19T06:25:10.514Z,19.95
2022-11-19T06:27:38.389Z,20.85
2022-11-19T06:30:08.013Z,21.65
2022-11-19T06:32:36.220Z,21.15
2022-11-19T06:35:04.633Z,22.27
2022-11-19T06:37:32.925Z,19.38
2022-11-19T06:40:00.875Z,24.88
2022-11-19T06:42:37.927Z,19.55
2022-11-19T06:45:09.681Z,19.88
2022-11-19T06:50:08.576Z,19.00
2022-11-19T06:52:36.979Z,18.55
2022-11-19T06:55:05.626Z,15.18
2022-11-19T06:57:33.673Z,19.40
2022-11-19T07:00:01.693Z,17.20
2022-11-19T07:02:29.659Z,18.05
2022-11-19T07:04:57.828Z,22.85
2022-11-19T07:07:25.788Z,22.52
2022-11-19T07:09:53.689Z,21.05
2022-11-19T07:12:21.765Z,18.70
2022-11-19T07:14:49.549Z,22.95
2022-11-19T07:17:17.466Z,22.67
2022-11-19T07:19:45.744Z,18.92
2022-11-19T07:22:13.655Z,20.02
2022-11-19T07:24:41.616Z,22.50
2022-11-19T07:27:10.175Z,21.75
2022-11-19T07:29:38.933Z,20.08
2022-11-19T07:32:06.987Z,22.85
2022-11-19T07:34:35.558Z,20.20
2022-11-19T07:37:03.832Z,24.33
2022-11-19T07:39:31.961Z,23.17
2022-11-19T07:42:18.781Z,8.38
2022-11-19T07:44:54.980Z,23.38
2022-11-19T07:47:24.090Z,24.13
2022-11-19T07:49:52.230Z,20.95
2022-11-19T07:52:21.211Z,20.88
2022-11-19T07:54:49.611Z,22.63
2022-11-19T07:57:17.520Z,25.15
2022-11-19T07:59:45.551Z,18.98
2022-11-19T08:02:15.306Z,24.30
2022-11-19T08:04:46.658Z,31.27
2022-11-19T08:07:14.702Z,38.63
2022-11-19T08:09:43.266Z,23.88
2022-11-19T08:12:11.339Z,30.25
2022-11-19T08:14:39.336Z,31.92
2022-11-19T08:17:26.737Z,53.35
2022-11-19T08:19:54.774Z,27.92
2022-11-19T08:22:22.811Z,29.88
2022-11-19T08:24:51.641Z,28.98
2022-11-19T08:27:19.738Z,20.75
2022-11-19T08:29:48.103Z,27.33
2022-11-19T08:32:16.364Z,29.70
2022-11-19T08:34:44.425Z,19.50
2022-11-19T08:37:13.698Z,31.30
2022-11-19T08:39:41.822Z,32.08
2022-11-19T08:42:29.022Z,27.35
2022-11-19T08:44:58.794Z,32.70
2022-11-19T08:47:26.921Z,28.13
2022-11-19T08:49:54.855Z,24.85
2022-11-19T08:52:23.476Z,33.22
2022-11-19T08:54:52.207Z,51.35
2022-11-19T08:57:20.098Z,26.17
2022-11-19T08:59:48.081Z,21.23
2022-11-19T09:02:16.197Z,17.30
2022-11-19T09:04:44.093Z,23.77
2022-11-19T09:07:12.158Z,23.83
2022-11-19T09:09:40.331Z,21.88
2022-11-19T09:12:09.041Z,30.05
2022-11-19T09:14:38.167Z,26.40
2022-11-19T09:17:06.234Z,28.35
2022-11-19T09:19:34.000Z,23.90
2022-11-19T09:22:02.540Z,30.77
2022-11-19T09:24:30.450Z,24.67
2022-11-19T09:27:02.087Z,23.15
2022-11-19T09:29:30.855Z,27.63
2022-11-19T09:31:59.022Z,33.08
2022-11-19T09:34:26.911Z,23.83
2022-11-19T09:36:55.923Z,26.38
2022-11-19T09:39:25.438Z,28.33
2022-11-19T09:42:22.737Z,19.63
2022-11-19T09:45:19.183Z,22.58
2022-11-19T09:48:23.675Z,28.30
2022-11-19T09:51:00.325Z,39.75
2022-11-19T09:53:36.118Z,30.67
2022-11-19T09:56:06.022Z,27.33
2022-11-19T09:58:43.567Z,27.33
2022-11-19T10:01:19.602Z,30.08
2022-11-19T10:03:54.176Z,26.42
2022-11-19T10:06:43.962Z,28.98
2022-11-19T10:09:44.658Z,30.20
2022-11-19T10:13:12.106Z,30.30
2022-11-19T10:15:51.536Z,21.13
2022-11-19T10:19:27.124Z,29.27
2022-11-19T10:22:22.778Z,22.15
2022-11-19T10:25:20.742Z,27.02
2022-11-19T10:28:02.268Z,26.60
2022-11-19T10:30:31.372Z,32.90
2022-11-19T10:33:28.178Z,29.08
2022-11-19T10:36:04.915Z,34.55
2022-11-19T10:38:49.939Z,22.73
2022-11-19T10:41:32.089Z,28.40
2022-11-19T10:44:43.343Z,36.10
2022-11-19T10:51:44.847Z,31.35
2022-11-19T10:54:28.008Z,30.63
2022-11-19T10:56:58.243Z,25.88
2022-11-19T10:59:30.603Z,26.10
2022-11-19T11:02:15.830Z,30.00
2022-11-19T11:05:07.332Z,32.83
2022-11-19T11:07:58.048Z,29.20
2022-11-19T11:10:36.326Z,33.83
2022-11-19T11:13:49.433Z,53.17
2022-11-19T11:16:22.305Z,25.05
2022-11-19T11:18:55.382Z,22.20
2022-11-19T11:21:38.573Z,24.17
2022-11-19T11:24:08.508Z,22.80
2022-11-19T11:26:38.015Z,29.75
2022-11-19T11:29:15.284Z,26.85
2022-11-19T11:31:47.839Z,26.83
2022-11-19T11:34:36.927Z,25.13
2022-11-19T11:37:08.817Z,26.75
2022-11-19T11:39:44.856Z,29.17
2022-11-19T11:42:19.667Z,20.40
2022-11-19T11:45:03.152Z,23.23
2022-11-19T11:47:38.118Z,32.45
2022-11-19T11:50:22.553Z,22.17
2022-11-19T11:52:54.955Z,30.20
2022-11-19T11:55:23.798Z,25.38
2022-11-19T11:58:05.145Z,30.08
2022-11-19T12:03:21.132Z,28.65
2022-11-19T12:06:09.315Z,26.45
2022-11-19T12:08:51.070Z,23.42
2022-11-19T12:11:58.224Z,27.98
2022-11-19T12:14:44.607Z,26.13
2022-11-19T12:17:47.794Z,24.17
2022-11-19T12:20:34.052Z,35.10
2022-11-19T12:23:20.768Z,24.27
2022-11-19T12:26:12.825Z,23.27
2022-11-19T12:28:59.261Z,26.40
2022-11-19T12:31:29.886Z,29.25
2022-11-19T12:34:53.881Z,26.40
2022-11-19T12:37:38.563Z,26.52
2022-11-19T12:40:49.694Z,23.50
2022-11-19T12:44:04.002Z,20.42
2022-11-19T12:46:50.652Z,19.80
2022-11-19T12:49:33.719Z,19.85
2022-11-19T12:52:10.909Z,16.58
2022-11-19T12:54:44.704Z,15.65
2022-11-19T12:57:48.840Z,17.63
2022-11-19T13:00:24.158Z,17.35
2022-11-19T13:03:15.289Z,22.02
2022-11-19T13:06:05.246Z,20.17
2022-11-19T13:08:45.928Z,19.15
2022-11-19T13:11:43.273Z,22.55
2022-11-19T13:14:35.902Z,21.77
2022-11-19T13:17:07.764Z,21.67
2022-11-19T13:19:39.867Z,18.17
2022-11-19T13:22:20.522Z,21.27
2022-11-19T13:25:12.585Z,21.55
2022-11-19T13:30:22.252Z,24.60
2022-11-19T13:33:20.303Z,28.33
2022-11-19T13:36:08.013Z,23.80
2022-11-19T13:38:49.233Z,31.25
2022-11-19T13:41:34.225Z,21.75
2022-11-19T13:44:20.932Z,23.77
2022-11-19T13:46:59.121Z,15.48
2022-11-19T13:49:51.198Z,27.80
2022-11-19T13:55:01.131Z,25.17
2022-11-19T13:57:42.880Z,24.58
2022-11-19T14:00:26.764Z,24.95
2022-11-19T14:03:22.290Z,25.73
2022-11-19T14:06:33.262Z,27.25
2022-11-19T14:09:23.870Z,21.95
2022-11-19T14:12:27.978Z,27.17
2022-11-19T14:15:38.433Z,23.65
2022-11-19T14:19:11.006Z,20.15
2022-11-19T14:24:46.403Z,20.38
2022-11-19T14:27:29.317Z,25.83
2022-11-19T14:30:16.305Z,22.05
2022-11-19T14:32:52.894Z,27.08
2022-11-19T14:35:27.282Z,25.45
2022-11-19T14:38:13.967Z,25.77
2022-11-19T14:40:43.951Z,26.27
2022-11-19T14:43:30.444Z,22.92
2022-11-19T14:46:08.879Z,22.77
2022-11-19T14:48:40.282Z,24.40
2022-11-19T14:51:15.369Z,27.42
2022-11-19T14:54:16.344Z,28.40
2022-11-19T14:56:49.750Z,28.65
2022-11-19T14:59:22.919Z,24.55
2022-11-19T15:01:58.778Z,74.47
2022-11-19T15:04:37.034Z,101.45
2022-11-19T15:07:14.370Z,52.22
2022-11-19T15:10:10.435Z,36.97
2022-11-19T15:12:43.999Z,28.55
2022-11-19T15:15:21.235Z,27.33
2022-11-19T15:18:02.385Z,30.58
2022-11-19T15:21:27.573Z,27.33
2022-11-19T15:24:57.483Z,30.73
2022-11-19T15:28:18.693Z,28.35
2022-11-19T15:31:04.036Z,26.88
2022-11-19T15:34:20.827Z,27.40
2022-11-19T15:36:55.765Z,37.28
2022-11-19T15:39:36.577Z,39.50
2022-11-19T15:42:12.935Z,51.00
2022-11-19T15:44:59.840Z,68.57
2022-11-19T15:47:41.118Z,66.00
2022-11-19T15:50:24.227Z,50.80
2022-11-19T15:53:22.602Z,37.58
2022-11-19T15:56:03.909Z,36.05
2022-11-19T15:58:41.488Z,37.35
2022-11-19T16:01:15.023Z,36.15
2022-11-19T16:03:43.162Z,41.90
2022-11-19T16:06:24.083Z,48.55
2022-11-19T16:08:55.220Z,53.63
2022-11-19T16:11:47.637Z,59.45
2022-11-19T16:14:44.110Z,61.25
2022-11-19T16:17:39.870Z,65.63
2022-11-19T16:20:11.636Z,70.82
2022-11-19T16:23:04.334Z,59.40
2022-11-19T16:25:38.136Z,56.08
2022-11-19T16:28:27.995Z,54.63
2022-11-19T16:31:03.085Z,59.33
2022-11-19T16:33:33.609Z,60.55
2022-11-19T16:36:20.208Z,68.53
2022-11-19T16:38:52.392Z,87.53
2022-11-19T16:41:44.093Z,79.25
2022-11-19T16:44:17.139Z,107.97
2022-11-19T16:46:45.997Z,90.95
2022-11-19T16:49:42.942Z,87.57
2022-11-19T16:52:12.173Z,109.05
2022-11-19T16:54:51.736Z,64.35
2022-11-19T16:57:24.190Z,46.85
2022-11-19T16:59:57.074Z,48.35
2022-11-19T17:02:37.588Z,42.38
2022-11-19T17:05:14.889Z,40.47
2022-11-19T17:07:50.278Z,42.80
2022-11-19T17:10:31.297Z,49.40
2022-11-19T17:13:04.267Z,72.97
2022-11-19T17:15:45.248Z,72.88
2022-11-19T17:18:36.841Z,64.00
2022-11-19T17:21:21.299Z,62.63
2022-11-19T17:23:51.634Z,69.00
2022-11-19T17:26:25.969Z,74.93
2022-11-19T17:29:22.822Z,75.20
2022-11-19T17:31:57.147Z,93.05
2022-11-19T17:34:44.524Z,86.38
2022-11-19T17:37:12.782Z,152.57
2022-11-19T17:39:40.827Z,100.65
2022-11-19T17:42:29.499Z,131.20
2022-11-19T17:44:57.747Z,113.68
2022-11-19T17:47:25.908Z,94.15
2022-11-19T17:49:54.572Z,89.22
2022-11-19T17:52:24.364Z,95.15
2022-11-19T17:54:56.524Z,85.57
2022-11-19T17:57:25.051Z,94.63
2022-11-19T17:59:53.027Z,145.23
2022-11-19T18:02:21.686Z,123.65
2022-11-19T18:04:50.234Z,93.00
2022-11-19T18:07:18.275Z,102.80
2022-11-19T18:09:46.523Z,113.70
2022-11-19T18:12:18.986Z,108.95
2022-11-19T18:14:47.879Z,100.47
2022-11-19T18:17:16.736Z,92.38
2022-11-19T18:19:44.738Z,129.88
2022-11-19T18:22:20.416Z,106.10
2022-11-19T18:24:50.484Z,104.78
2022-11-19T18:27:18.711Z,105.28
2022-11-19T18:29:47.032Z,77.00
2022-11-19T18:32:17.498Z,77.50
2022-11-19T18:34:46.408Z,83.10
2022-11-19T18:37:14.586Z,84.32
2022-11-19T18:39:42.579Z,75.32
2022-11-19T18:42:14.096Z,76.75
2022-11-19T18:44:43.772Z,83.70
2022-11-19T18:47:14.957Z,75.43
2022-11-19T18:49:43.010Z,76.63
2022-11-19T18:52:16.720Z,80.00
2022-11-19T18:54:45.210Z,87.78
2022-11-19T18:57:13.898Z,74.95
2022-11-19T18:59:42.248Z,69.85
2022-11-19T19:02:11.327Z,76.28
2022-11-19T19:04:39.496Z,68.60
2022-11-19T19:07:07.858Z,73.32
2022-11-19T19:09:37.668Z,73.85
2022-11-19T19:12:18.458Z,76.95
2022-11-19T19:14:51.793Z,48.40
2022-11-19T19:17:20.476Z,68.60
2022-11-19T19:19:49.945Z,65.70
2022-11-19T19:22:18.688Z,60.25
2022-11-19T19:24:47.259Z,65.43
2022-11-19T19:27:15.773Z,59.35
2022-11-19T19:29:44.438Z,54.83
2022-11-19T19:32:12.646Z,66.18
2022-11-19T19:34:41.342Z,62.42
2022-11-19T19:37:09.501Z,66.53
2022-11-19T19:39:56.245Z,69.95
2022-11-19T19:42:24.993Z,66.70
2022-11-19T19:44:53.183Z,72.97
2022-11-19T19:47:21.206Z,75.97
2022-11-19T19:49:49.732Z,76.70
2022-11-19T19:52:20.188Z,71.90
2022-11-19T19:54:48.431Z,73.47
2022-11-19T19:57:16.581Z,68.90
2022-11-19T19:59:44.697Z,74.95
2022-11-19T20:02:13.147Z,61.78
2022-11-19T20:04:42.143Z,71.20
2022-11-19T20:07:11.094Z,70.47
2022-11-19T20:09:39.295Z,71.85
2022-11-19T20:12:07.683Z,72.70
2022-11-19T20:14:36.148Z,69.18
2022-11-19T20:17:04.310Z,64.65
2022-11-19T20:19:32.633Z,64.45
2022-11-19T20:22:01.828Z,70.30
2022-11-19T20:24:30.085Z,62.53
2022-11-19T20:26:59.054Z,61.25
2022-11-19T20:29:27.381Z,65.65
2022-11-19T20:31:55.847Z,65.07
2022-11-19T20:34:24.557Z,64.45
2022-11-19T20:36:54.010Z,64.95
2022-11-19T20:39:22.731Z,74.68
2022-11-19T20:42:09.937Z,71.25
2022-11-19T20:44:38.371Z,69.13
2022-11-19T20:47:06.496Z,73.35
2022-11-19T20:49:40.892Z,61.10
2022-11-19T20:52:11.035Z,65.95
2022-11-19T20:54:39.208Z,72.20
2022-11-19T20:57:08.370Z,74.00
2022-11-19T20:59:36.732Z,71.53
2022-11-19T21:02:04.880Z,81.18
2022-11-19T21:04:36.854Z,82.10
2022-11-19T21:07:06.019Z,77.28
2022-11-19T21:09:34.472Z,63.70
2022-11-19T21:12:02.539Z,66.88
2022-11-19T21:14:30.679Z,76.57
2022-11-19T21:16:58.818Z,64.32
2022-11-19T21:19:27.116Z,66.85
2022-11-19T21:21:55.770Z,73.82
2022-11-19T21:24:23.712Z,85.25
2022-11-19T21:26:52.658Z,84.80
2022-11-19T21:29:21.235Z,227.85
2022-11-19T21:31:49.543Z,182.95
2022-11-19T21:34:20.835Z,203.50
2022-11-19T21:36:50.605Z,361.20
2022-11-19T21:39:22.031Z,195.10
2022-11-19T21:44:21.559Z,169.67
2022-11-19T21:46:50.824Z,189.90
2022-11-19T21:49:19.596Z,265.10
2022-11-19T21:51:49.327Z,490.63
2022-11-19T21:54:19.007Z,413.17
2022-11-19T21:56:47.533Z,294.88
2022-11-19T21:59:15.560Z,255.80
2022-11-19T22:01:43.824Z,237.93
2022-11-19T22:04:15.766Z,176.03
2022-11-19T22:06:43.971Z,187.18
2022-11-19T22:09:12.111Z,195.70
2022-11-19T22:11:40.327Z,204.40
2022-11-19T22:14:09.884Z,191.70
2022-11-19T22:16:40.696Z,190.20
2022-11-19T22:19:11.285Z,134.95
2022-11-19T22:21:40.543Z,104.47
2022-11-19T22:24:08.757Z,98.50
2022-11-19T22:26:37.153Z,89.97
2022-11-19T22:29:05.359Z,118.63
2022-11-19T22:31:33.552Z,123.03
2022-11-19T22:34:01.895Z,86.37
2022-11-19T22:36:31.627Z,90.88
2022-11-19T22:39:00.578Z,94.78
2022-11-19T22:41:28.798Z,88.83
2022-11-19T22:43:58.685Z,96.93
2022-11-19T22:46:28.533Z,85.00
2022-11-19T22:48:57.342Z,184.73
2022-11-19T22:51:26.424Z,194.97
2022-11-19T22:53:55.555Z,171.37
2022-11-19T22:56:27.186Z,108.70
2022-11-19T23:01:30.171Z,124.87
2022-11-19T23:04:01.889Z,101.47
2022-11-19T23:06:29.859Z,84.43
2022-11-19T23:08:57.958Z,88.33
2022-11-19T23:11:45.863Z,93.68
2022-11-19T23:14:16.983Z,75.87
2022-11-19T23:16:46.226Z,78.28
2022-11-19T23:19:19.376Z,76.43
2022-11-19T23:21:47.877Z,71.10
2022-11-19T23:24:15.753Z,59.13
2022-11-19T23:26:43.928Z,58.77
2022-11-19T23:29:11.906Z,61.43
2022-11-19T23:31:40.957Z,65.32
2022-11-19T23:34:09.283Z,64.35
2022-11-19T23:36:40.280Z,68.63
2022-11-19T23:39:14.871Z,47.25
2022-11-19T23:41:43.436Z,56.60
2022-11-19T23:44:11.534Z,57.50
2022-11-19T23:46:40.307Z,59.03
2022-11-19T23:49:08.627Z,61.97
2022-11-19T23:51:38.667Z,60.17
2022-11-19T23:54:07.883Z,58.40
2022-11-19T23:56:36.452Z,60.20
2022-11-19T23:59:06.102Z,64.30
